< < Back
Terminal Aerodrome Forecast


Current Version              Previous Versions:   1  2  3  4  5  6  7  8  9  

Terminal Aerodrome Forecast

758
FTUS42 KILM 312300
TAFILM
TAF
KILM 312324Z 0100/0124 01004KT P6SM SCT045
     FM010700 VRB03KT P6SM VCSH SCT035 BKN080
     FM011400 28007KT P6SM VCSH SCT040 BKN100
     FM011800 31010G20KT P6SM -RA SCT025 BKN040 OVC100=

Latest METAR

291
SAUS70 KWBC 010100 RRO
MTRILM
METAR KILM 010053Z 02003KT 10SM CLR 11/07 A2981 RMK AO2 SLP092
T01060072


USA.gov is the U.S. government's official web portal to all federal, state and local government web resources and services.